createdAt,value
2018-07-14T00:00:26.567Z,23.30
2018-07-14T00:02:54.827Z,23.20
2018-07-14T00:05:23.051Z,23.20
2018-07-14T00:07:52.303Z,23.20
2018-07-14T00:10:20.587Z,23.30
2018-07-14T00:12:48.854Z,23.20
2018-07-14T00:15:17.114Z,23.10
2018-07-14T00:17:45.393Z,23.10
2018-07-14T00:20:13.613Z,23.10
2018-07-14T00:22:42.223Z,23.10
2018-07-14T00:25:10.520Z,23.10
2018-07-14T00:27:38.711Z,23.10
2018-07-14T00:30:07.136Z,23.10
2018-07-14T00:32:35.294Z,23.10
2018-07-14T00:35:03.687Z,23.10
2018-07-14T00:37:31.987Z,23.00
2018-07-14T00:42:28.181Z,22.90
2018-07-14T00:44:56.461Z,22.90
2018-07-14T00:47:24.739Z,22.90
2018-07-14T00:49:52.999Z,22.80
2018-07-14T00:52:21.234Z,22.80
2018-07-14T00:54:49.465Z,22.80
2018-07-14T00:57:17.715Z,22.70
2018-07-14T00:59:45.983Z,22.70
2018-07-14T01:02:14.207Z,22.70
2018-07-14T01:04:42.455Z,22.70
2018-07-14T01:07:10.700Z,22.70
2018-07-14T01:09:38.948Z,22.70
2018-07-14T01:12:07.175Z,22.60
2018-07-14T01:14:35.471Z,22.60
2018-07-14T01:17:03.718Z,22.60
2018-07-14T01:19:31.939Z,22.60
2018-07-14T01:22:00.835Z,22.50
2018-07-14T01:24:29.103Z,22.40
2018-07-14T01:26:57.362Z,22.40
2018-07-14T01:29:25.606Z,22.40
2018-07-14T01:31:53.908Z,22.30
2018-07-14T01:34:22.101Z,22.30
2018-07-14T01:36:50.310Z,22.30
2018-07-14T01:39:18.511Z,22.30
2018-07-14T01:41:46.827Z,22.30
2018-07-14T01:44:15.078Z,22.30
2018-07-14T01:46:43.292Z,22.30
2018-07-14T01:49:11.519Z,22.30
2018-07-14T01:51:39.790Z,22.30
2018-07-14T01:54:08.256Z,22.30
2018-07-14T01:56:36.463Z,22.20
2018-07-14T01:59:04.735Z,22.20
2018-07-14T02:01:32.966Z,22.10
2018-07-14T02:04:01.198Z,22.00
2018-07-14T02:06:29.440Z,22.00
2018-07-14T02:08:57.655Z,21.90
2018-07-14T02:11:25.887Z,21.80
2018-07-14T02:13:54.206Z,21.80
2018-07-14T02:16:22.444Z,21.80
2018-07-14T02:18:50.679Z,21.80
2018-07-14T02:21:20.419Z,21.80
2018-07-14T02:23:49.055Z,21.80
2018-07-14T02:26:17.427Z,21.70
2018-07-14T02:28:45.663Z,21.70
2018-07-14T02:31:13.892Z,21.70
2018-07-14T02:33:42.115Z,21.60
2018-07-14T02:36:10.402Z,21.60
2018-07-14T02:38:38.623Z,21.60
2018-07-14T02:41:06.851Z,21.60
2018-07-14T02:43:35.162Z,21.60
2018-07-14T02:46:03.405Z,21.60
2018-07-14T02:48:31.632Z,21.60
2018-07-14T02:50:59.860Z,21.60
2018-07-14T02:53:28.043Z,21.60
2018-07-14T02:55:56.272Z,21.60
2018-07-14T02:58:24.473Z,21.60
2018-07-14T03:00:52.698Z,21.50
2018-07-14T03:03:20.968Z,21.60
2018-07-14T03:05:49.393Z,21.50
2018-07-14T03:08:17.598Z,21.50
2018-07-14T03:10:45.923Z,21.50
2018-07-14T03:13:14.168Z,21.50
2018-07-14T03:15:42.390Z,21.50
2018-07-14T03:18:10.634Z,21.50
2018-07-14T03:20:38.888Z,21.50
2018-07-14T03:23:07.076Z,21.40
2018-07-14T03:25:35.498Z,21.40
2018-07-14T03:28:03.809Z,21.40
2018-07-14T03:30:32.156Z,21.40
2018-07-14T03:33:00.367Z,21.40
2018-07-14T03:35:28.622Z,21.30
2018-07-14T03:37:56.845Z,21.30
2018-07-14T03:40:25.090Z,21.30
2018-07-14T03:42:53.311Z,21.30
2018-07-14T03:45:21.567Z,21.20
2018-07-14T03:47:49.819Z,21.20
2018-07-14T03:50:18.859Z,21.20
2018-07-14T03:52:47.064Z,21.20
2018-07-14T03:55:15.306Z,21.10
2018-07-14T03:57:43.519Z,21.10
2018-07-14T04:00:11.767Z,21.10
2018-07-14T04:02:39.985Z,21.10
2018-07-14T04:05:08.266Z,21.10
2018-07-14T04:07:36.512Z,21.10
2018-07-14T04:10:04.715Z,21.10
2018-07-14T04:12:32.973Z,21.10
2018-07-14T04:15:01.450Z,21.10
2018-07-14T04:17:29.639Z,21.10
2018-07-14T04:19:57.842Z,21.10
2018-07-14T04:22:26.053Z,21.10
2018-07-14T04:24:54.457Z,21.10
2018-07-14T04:27:22.673Z,21.20
2018-07-14T04:29:50.874Z,21.20
2018-07-14T04:32:19.064Z,21.20
2018-07-14T04:34:47.537Z,21.20
2018-07-14T04:37:15.725Z,21.20
2018-07-14T04:39:43.995Z,21.20
2018-07-14T04:42:12.202Z,21.20
2018-07-14T04:44:41.010Z,21.30
2018-07-14T04:47:09.269Z,21.30
2018-07-14T04:49:37.553Z,21.40
2018-07-14T04:52:05.803Z,21.40
2018-07-14T04:54:34.960Z,21.40
2018-07-14T04:57:09.715Z,21.40
2018-07-14T04:59:38.999Z,21.50
2018-07-14T05:02:07.226Z,21.50
2018-07-14T05:04:35.472Z,21.50
2018-07-14T05:07:03.742Z,21.50
2018-07-14T05:09:32.141Z,21.60
2018-07-14T05:12:00.342Z,21.60
2018-07-14T05:14:28.619Z,21.60
2018-07-14T05:16:56.857Z,21.60
2018-07-14T05:19:25.115Z,21.60
2018-07-14T05:21:53.453Z,21.50
2018-07-14T05:24:21.698Z,21.50
2018-07-14T05:26:50.139Z,21.40
2018-07-14T05:29:18.582Z,21.40
2018-07-14T05:31:46.783Z,21.40
2018-07-14T05:34:15.328Z,21.40
2018-07-14T05:36:43.664Z,21.50
2018-07-14T05:39:11.878Z,21.60
2018-07-14T05:41:40.104Z,21.70
2018-07-14T05:44:08.358Z,21.70
2018-07-14T05:46:36.550Z,21.80
2018-07-14T05:49:04.931Z,21.70
2018-07-14T05:51:33.174Z,21.80
2018-07-14T05:54:01.403Z,21.80
2018-07-14T05:56:29.666Z,21.90
2018-07-14T05:58:57.886Z,21.90
2018-07-14T06:01:26.111Z,21.80
2018-07-14T06:03:54.306Z,21.80
2018-07-14T06:06:22.534Z,21.80
2018-07-14T06:08:50.771Z,21.80
2018-07-14T06:11:18.956Z,21.80
2018-07-14T06:13:47.171Z,21.90
2018-07-14T06:16:15.407Z,22.00
2018-07-14T06:18:43.621Z,22.10
2018-07-14T06:21:11.842Z,22.20
2018-07-14T06:23:40.051Z,22.30
2018-07-14T06:26:08.239Z,22.40
2018-07-14T06:28:36.414Z,22.40
2018-07-14T06:31:04.718Z,22.50
2018-07-14T06:33:32.947Z,22.60
2018-07-14T06:36:01.140Z,22.60
2018-07-14T06:38:29.464Z,22.60
2018-07-14T06:40:57.590Z,22.60
2018-07-14T06:43:25.898Z,22.70
2018-07-14T06:45:54.137Z,22.80
2018-07-14T06:48:22.392Z,22.80
2018-07-14T06:50:50.614Z,22.80
2018-07-14T06:53:18.816Z,22.90
2018-07-14T06:55:47.083Z,22.90
2018-07-14T06:58:15.333Z,22.80
2018-07-14T07:00:43.611Z,22.90
2018-07-14T07:03:11.855Z,22.90
2018-07-14T07:05:40.048Z,22.90
2018-07-14T07:08:08.385Z,23.00
2018-07-14T07:10:36.634Z,23.00
2018-07-14T07:13:04.891Z,23.00
2018-07-14T07:15:33.102Z,23.10
2018-07-14T07:18:01.343Z,23.20
2018-07-14T07:20:29.560Z,23.30
2018-07-14T07:22:57.811Z,23.30
2018-07-14T07:25:26.064Z,23.50
2018-07-14T07:27:54.310Z,23.60
2018-07-14T07:30:22.641Z,23.70
2018-07-14T07:32:50.859Z,23.80
2018-07-14T07:35:19.148Z,24.10
2018-07-14T07:37:47.355Z,24.20
2018-07-14T07:40:15.686Z,24.30
2018-07-14T07:42:43.962Z,24.30
2018-07-14T07:45:12.250Z,24.40
2018-07-14T07:47:40.444Z,24.40
2018-07-14T07:50:08.686Z,24.50
2018-07-14T07:52:36.903Z,24.40
2018-07-14T07:55:05.135Z,24.50
2018-07-14T07:57:33.394Z,24.50
2018-07-14T08:00:01.665Z,24.60
2018-07-14T08:02:29.959Z,24.60
2018-07-14T08:04:58.171Z,24.60
2018-07-14T08:07:26.484Z,24.70
2018-07-14T08:09:54.767Z,25.00
2018-07-14T08:12:23.050Z,25.00
2018-07-14T08:14:51.414Z,25.20
2018-07-14T08:17:19.662Z,25.40
2018-07-14T08:19:47.906Z,25.70
2018-07-14T08:22:16.107Z,26.80
2018-07-14T08:27:12.381Z,29.60
2018-07-14T08:29:40.595Z,30.30
2018-07-14T08:32:08.800Z,31.10
2018-07-14T08:34:37.037Z,31.80
2018-07-14T08:37:05.306Z,32.20
2018-07-14T08:39:33.523Z,32.50
2018-07-14T08:42:02.608Z,32.50
2018-07-14T08:44:30.880Z,32.70
2018-07-14T08:46:59.176Z,32.80
2018-07-14T08:49:27.675Z,33.30
2018-07-14T08:51:55.961Z,33.20
2018-07-14T08:54:24.170Z,33.40
2018-07-14T08:56:52.432Z,34.00
2018-07-14T08:59:21.122Z,34.40
2018-07-14T09:01:49.356Z,34.60
2018-07-14T09:04:17.607Z,34.60
2018-07-14T09:06:45.924Z,34.70
2018-07-14T09:09:14.211Z,35.00
2018-07-14T09:11:42.498Z,35.10
2018-07-14T09:14:10.748Z,34.40
2018-07-14T09:16:38.946Z,33.40
2018-07-14T09:19:07.190Z,32.30
2018-07-14T09:21:35.439Z,31.40
2018-07-14T09:24:04.407Z,30.70
2018-07-14T09:26:32.624Z,30.20
2018-07-14T09:29:01.139Z,29.60
2018-07-14T09:31:29.318Z,29.20
2018-07-14T09:33:57.563Z,28.80
2018-07-14T09:36:25.875Z,28.50
2018-07-14T09:38:54.231Z,28.20
2018-07-14T09:41:22.476Z,28.00
2018-07-14T09:43:50.779Z,27.70
2018-07-14T09:46:19.332Z,27.60
2018-07-14T09:48:47.538Z,27.60
2018-07-14T09:51:15.864Z,27.70
2018-07-14T09:53:44.103Z,27.80
2018-07-14T09:56:12.379Z,27.70
2018-07-14T09:58:41.194Z,27.70
2018-07-14T10:01:10.867Z,27.80
2018-07-14T10:03:39.845Z,27.80
2018-07-14T10:06:08.482Z,27.80
2018-07-14T10:08:36.707Z,27.80
2018-07-14T10:11:05.000Z,27.80
2018-07-14T10:13:33.233Z,27.80
2018-07-14T10:16:01.571Z,27.70
2018-07-14T10:18:29.818Z,27.70
2018-07-14T10:20:58.035Z,27.70
2018-07-14T10:23:26.266Z,27.60
2018-07-14T10:25:54.724Z,27.60
2018-07-14T10:28:22.757Z,27.70
2018-07-14T10:30:51.052Z,27.60
2018-07-14T10:33:19.799Z,27.80
2018-07-14T10:35:48.046Z,28.00
2018-07-14T10:38:16.295Z,28.00
2018-07-14T10:40:44.526Z,28.10
2018-07-14T10:43:12.779Z,28.40
2018-07-14T10:45:41.038Z,28.60
2018-07-14T10:48:09.250Z,28.80
2018-07-14T10:50:38.095Z,28.60
2018-07-14T10:53:06.570Z,28.50
2018-07-14T10:55:34.785Z,28.50
2018-07-14T10:58:03.034Z,28.40
2018-07-14T11:00:31.249Z,28.30
2018-07-14T11:02:59.448Z,28.40
2018-07-14T11:05:27.686Z,28.50
2018-07-14T11:07:59.396Z,28.50
2018-07-14T11:10:27.626Z,28.60
2018-07-14T11:12:55.880Z,28.70
2018-07-14T11:15:24.164Z,28.70
2018-07-14T11:17:52.461Z,28.90
2018-07-14T11:20:20.648Z,28.90
2018-07-14T11:22:48.898Z,29.00
2018-07-14T11:25:17.098Z,28.90
2018-07-14T11:27:45.909Z,28.80
2018-07-14T11:30:14.148Z,28.60
2018-07-14T11:32:42.350Z,28.60
2018-07-14T11:35:10.584Z,28.70
2018-07-14T11:37:38.805Z,28.70
2018-07-14T11:40:07.107Z,28.60
2018-07-14T11:42:35.387Z,28.50
2018-07-14T11:45:03.642Z,28.50
2018-07-14T11:47:31.978Z,28.50
2018-07-14T11:52:28.186Z,28.50
2018-07-14T11:54:56.448Z,28.80
2018-07-14T11:57:24.691Z,29.10
2018-07-14T11:59:52.957Z,29.30
2018-07-14T12:02:21.434Z,29.40
2018-07-14T12:04:49.661Z,29.30
2018-07-14T12:07:17.918Z,29.20
2018-07-14T12:09:46.087Z,29.20
2018-07-14T12:12:17.052Z,29.30
2018-07-14T12:14:45.314Z,29.00
2018-07-14T12:17:13.595Z,28.70
2018-07-14T12:19:41.814Z,28.60
2018-07-14T12:22:10.030Z,28.90
2018-07-14T12:24:38.258Z,29.10
2018-07-14T12:27:07.053Z,29.20
2018-07-14T12:29:35.304Z,29.20
2018-07-14T12:32:03.577Z,29.30
2018-07-14T12:34:31.810Z,29.50
2018-07-14T12:37:00.044Z,29.70
2018-07-14T12:39:28.253Z,29.80
2018-07-14T12:41:56.503Z,29.90
2018-07-14T12:44:24.712Z,29.90
2018-07-14T12:46:52.945Z,29.90
2018-07-14T12:49:21.148Z,29.90
2018-07-14T12:51:49.423Z,29.90
2018-07-14T12:54:17.676Z,30.00
2018-07-14T12:56:45.948Z,30.00
2018-07-14T12:59:14.148Z,29.90
2018-07-14T13:01:42.434Z,29.70
2018-07-14T13:04:10.701Z,29.80
2018-07-14T13:06:39.052Z,30.00
2018-07-14T13:09:07.561Z,30.00
2018-07-14T13:11:37.294Z,30.20
2018-07-14T13:14:05.543Z,30.20
2018-07-14T13:16:34.384Z,30.00
2018-07-14T13:19:02.844Z,29.90
2018-07-14T13:21:31.130Z,29.80
2018-07-14T13:23:59.420Z,29.80
2018-07-14T13:26:27.714Z,29.80
2018-07-14T13:31:24.090Z,29.80
2018-07-14T13:33:52.400Z,29.90
2018-07-14T13:36:20.700Z,30.10
2018-07-14T13:38:51.735Z,29.80
2018-07-14T13:41:17.895Z,29.50
2018-07-14T13:43:46.176Z,29.40
2018-07-14T13:46:14.475Z,29.40
2018-07-14T13:48:42.730Z,29.60
2018-07-14T13:51:11.059Z,29.70
2018-07-14T13:53:39.291Z,29.90
2018-07-14T13:56:07.593Z,30.10
2018-07-14T13:58:35.871Z,30.30
2018-07-14T14:01:04.147Z,30.30
2018-07-14T14:03:32.434Z,30.40
2018-07-14T14:06:00.690Z,30.40
2018-07-14T14:08:28.986Z,30.30
2018-07-14T14:10:57.211Z,30.10
2018-07-14T14:13:27.289Z,29.80
2018-07-14T14:15:55.546Z,29.70
2018-07-14T14:18:23.774Z,29.50
2018-07-14T14:20:52.859Z,29.50
2018-07-14T14:23:21.055Z,29.50
2018-07-14T14:25:49.306Z,29.50
2018-07-14T14:28:17.509Z,29.50
2018-07-14T14:30:45.738Z,29.40
2018-07-14T14:33:13.987Z,29.40
2018-07-14T14:35:42.250Z,29.60
2018-07-14T14:38:10.518Z,29.70
2018-07-14T14:40:38.811Z,29.80
2018-07-14T14:43:07.270Z,29.80
2018-07-14T14:45:35.534Z,30.00
2018-07-14T14:48:03.832Z,30.00
2018-07-14T14:50:32.098Z,29.80
2018-07-14T14:53:00.367Z,29.80
2018-07-14T14:55:28.622Z,29.90
2018-07-14T14:57:56.800Z,29.90
2018-07-14T15:00:25.654Z,29.90
2018-07-14T15:02:53.935Z,29.70
2018-07-14T15:05:22.277Z,29.70
2018-07-14T15:07:50.466Z,29.80
2018-07-14T15:10:18.703Z,29.90
2018-07-14T15:12:46.999Z,29.90
2018-07-14T15:15:15.241Z,29.80
2018-07-14T15:17:43.786Z,29.70
2018-07-14T15:20:11.990Z,29.50
2018-07-14T15:22:40.202Z,29.70
2018-07-14T15:25:08.407Z,29.70
2018-07-14T15:27:36.615Z,29.80
2018-07-14T15:30:05.938Z,29.90
2018-07-14T15:32:34.240Z,30.00
2018-07-14T15:35:02.419Z,30.10
2018-07-14T15:37:30.645Z,30.20
2018-07-14T15:39:58.862Z,30.30
2018-07-14T15:42:27.042Z,30.20
2018-07-14T15:44:55.290Z,30.20
2018-07-14T15:47:23.534Z,30.20
2018-07-14T15:49:51.892Z,30.10
2018-07-14T15:52:20.106Z,30.10
2018-07-14T15:54:48.357Z,30.10
2018-07-14T15:57:16.615Z,30.00
2018-07-14T15:59:44.860Z,30.10
2018-07-14T16:02:13.075Z,30.10
2018-07-14T16:04:41.266Z,30.00
2018-07-14T16:07:09.495Z,30.00
2018-07-14T16:09:37.872Z,30.10
2018-07-14T16:12:06.477Z,30.00
2018-07-14T16:14:34.785Z,29.80
2018-07-14T16:17:03.616Z,29.90
2018-07-14T16:19:31.843Z,29.90
2018-07-14T16:22:00.101Z,29.80
2018-07-14T16:24:29.485Z,29.70
2018-07-14T16:26:57.768Z,29.60
2018-07-14T16:29:26.064Z,29.60
2018-07-14T16:31:55.026Z,29.60
2018-07-14T16:34:23.251Z,29.70
2018-07-14T16:36:51.514Z,29.60
2018-07-14T16:39:19.851Z,29.70
2018-07-14T16:41:48.041Z,29.70
2018-07-14T16:44:16.299Z,29.80
2018-07-14T16:46:44.519Z,29.80
2018-07-14T16:49:12.750Z,29.80
2018-07-14T16:51:41.075Z,29.80
2018-07-14T16:54:09.303Z,29.70
2018-07-14T16:56:37.519Z,29.70
2018-07-14T16:59:05.855Z,29.70
2018-07-14T17:01:34.064Z,29.80
2018-07-14T17:04:02.318Z,29.80
2018-07-14T17:06:31.430Z,29.80
2018-07-14T17:08:59.702Z,29.70
2018-07-14T17:11:27.914Z,29.60
2018-07-14T17:13:56.153Z,29.60
2018-07-14T17:16:25.043Z,29.60
2018-07-14T17:18:53.292Z,29.60
2018-07-14T17:21:22.145Z,29.60
2018-07-14T17:23:50.406Z,29.60
2018-07-14T17:26:18.872Z,29.60
2018-07-14T17:28:47.094Z,29.50
2018-07-14T17:33:43.271Z,29.40
2018-07-14T17:36:11.519Z,29.40
2018-07-14T17:38:39.742Z,29.40
2018-07-14T17:41:08.435Z,29.30
2018-07-14T17:43:36.689Z,29.20
2018-07-14T17:46:05.818Z,29.20
2018-07-14T17:48:34.168Z,29.20
2018-07-14T17:51:02.531Z,29.10
2018-07-14T17:53:30.718Z,29.10
2018-07-14T17:55:58.987Z,29.10
2018-07-14T17:58:27.201Z,29.10
2018-07-14T18:00:55.425Z,29.10
2018-07-14T18:03:23.813Z,29.10
2018-07-14T18:05:52.031Z,29.00
2018-07-14T18:08:20.257Z,29.00
2018-07-14T18:10:48.482Z,28.90
2018-07-14T18:13:16.706Z,28.90
2018-07-14T18:15:44.938Z,28.80
2018-07-14T18:18:13.167Z,28.70
2018-07-14T18:20:41.399Z,28.70
2018-07-14T18:23:09.611Z,28.70
2018-07-14T18:25:37.849Z,28.60
2018-07-14T18:28:06.038Z,28.60
2018-07-14T18:30:34.236Z,28.40
2018-07-14T18:33:02.503Z,28.30
2018-07-14T18:35:30.703Z,26.70
2018-07-14T18:37:59.017Z,28.20
2018-07-14T18:40:27.267Z,28.20
2018-07-14T18:42:55.636Z,28.20
2018-07-14T18:45:23.921Z,28.10
2018-07-14T18:47:52.166Z,28.10
2018-07-14T18:50:21.039Z,28.10
2018-07-14T18:52:49.338Z,28.10
2018-07-14T18:55:17.559Z,28.10
2018-07-14T18:57:45.778Z,28.00
2018-07-14T19:00:14.009Z,27.90
2018-07-14T19:02:42.219Z,27.90
2018-07-14T19:05:10.419Z,27.80
2018-07-14T19:07:38.668Z,27.80
2018-07-14T19:10:07.045Z,27.70
2018-07-14T19:12:35.273Z,27.70
2018-07-14T19:15:03.605Z,27.70
2018-07-14T19:17:31.823Z,27.60
2018-07-14T19:20:00.082Z,27.60
2018-07-14T19:22:28.326Z,27.50
2018-07-14T19:24:56.555Z,27.40
2018-07-14T19:27:24.770Z,27.40
2018-07-14T19:29:54.515Z,27.30
2018-07-14T19:32:22.725Z,27.20
2018-07-14T19:34:51.791Z,27.20
2018-07-14T19:37:19.961Z,27.10
2018-07-14T19:39:48.464Z,27.10
2018-07-14T19:42:16.659Z,27.10
2018-07-14T19:44:44.895Z,27.00
2018-07-14T19:47:13.184Z,27.00
2018-07-14T19:49:41.446Z,26.90
2018-07-14T19:52:09.700Z,26.90
2018-07-14T19:54:37.958Z,26.80
2018-07-14T19:57:06.235Z,26.80
2018-07-14T19:59:34.425Z,26.70
2018-07-14T20:02:02.627Z,26.70
2018-07-14T20:04:30.876Z,26.70
2018-07-14T20:06:59.074Z,26.60
2018-07-14T20:09:27.260Z,26.60
2018-07-14T20:11:55.443Z,26.60
2018-07-14T20:14:23.719Z,26.50
2018-07-14T20:16:51.950Z,26.50
2018-07-14T20:19:20.175Z,26.50
2018-07-14T20:21:48.386Z,26.40
2018-07-14T20:24:16.557Z,26.40
2018-07-14T20:26:44.770Z,26.30
2018-07-14T20:29:12.977Z,26.30
2018-07-14T20:31:41.177Z,26.20
2018-07-14T20:34:09.394Z,26.20
2018-07-14T20:36:37.636Z,26.20
2018-07-14T20:39:06.426Z,26.10
2018-07-14T20:41:34.792Z,26.10
2018-07-14T20:44:03.091Z,26.10
2018-07-14T20:46:31.302Z,26.10
2018-07-14T20:48:59.496Z,26.10
2018-07-14T20:51:27.686Z,26.10
2018-07-14T20:53:55.906Z,26.00
2018-07-14T20:56:24.098Z,26.00
2018-07-14T20:58:52.275Z,25.90
2018-07-14T21:01:20.463Z,25.90
2018-07-14T21:03:48.652Z,25.90
2018-07-14T21:06:16.936Z,25.80
2018-07-14T21:08:45.093Z,25.80
2018-07-14T21:11:13.321Z,25.80
2018-07-14T21:13:41.526Z,25.70
2018-07-14T21:16:09.734Z,25.70
2018-07-14T21:18:37.982Z,25.70
2018-07-14T21:21:06.362Z,25.70
2018-07-14T21:23:34.583Z,25.60
2018-07-14T21:26:02.770Z,25.60
2018-07-14T21:28:30.949Z,25.50
2018-07-14T21:30:59.221Z,25.50
2018-07-14T21:33:27.415Z,25.50
2018-07-14T21:35:55.627Z,25.50
2018-07-14T21:40:51.834Z,25.40
2018-07-14T21:43:20.043Z,25.40
2018-07-14T21:45:48.302Z,25.40
2018-07-14T21:48:16.538Z,25.40
2018-07-14T21:50:44.865Z,25.30
2018-07-14T21:53:12.997Z,25.30
2018-07-14T21:55:41.230Z,25.20
2018-07-14T21:58:09.457Z,25.20
2018-07-14T22:00:43.126Z,25.20
2018-07-14T22:03:11.363Z,25.10
2018-07-14T22:05:39.562Z,25.00
2018-07-14T22:08:07.866Z,25.00
2018-07-14T22:10:36.074Z,25.00
2018-07-14T22:13:04.322Z,24.90
2018-07-14T22:15:32.558Z,24.90
2018-07-14T22:18:00.726Z,24.80
2018-07-14T22:20:28.987Z,24.80
2018-07-14T22:22:57.157Z,24.70
2018-07-14T22:25:25.393Z,24.70
2018-07-14T22:27:53.668Z,24.70
2018-07-14T22:30:21.898Z,24.70
2018-07-14T22:32:50.071Z,24.70
2018-07-14T22:35:18.318Z,24.60
2018-07-14T22:37:46.568Z,24.60
2018-07-14T22:40:14.773Z,24.60
2018-07-14T22:42:42.959Z,24.60
2018-07-14T22:45:11.146Z,24.50
2018-07-14T22:47:39.356Z,24.50
2018-07-14T22:50:07.563Z,24.50
2018-07-14T22:52:35.765Z,24.40
2018-07-14T22:55:03.974Z,24.40
2018-07-14T22:57:32.210Z,24.30
2018-07-14T23:00:00.398Z,24.30
2018-07-14T23:02:28.611Z,24.20
2018-07-14T23:04:56.794Z,24.20
2018-07-14T23:07:24.989Z,24.20
2018-07-14T23:09:53.186Z,24.10
2018-07-14T23:12:21.427Z,24.10
2018-07-14T23:14:49.609Z,24.00
2018-07-14T23:17:17.826Z,24.00
2018-07-14T23:19:46.039Z,24.00
2018-07-14T23:22:14.258Z,24.00
2018-07-14T23:24:42.482Z,24.00
2018-07-14T23:27:10.679Z,24.00
2018-07-14T23:29:38.909Z,23.90
2018-07-14T23:32:07.131Z,23.90
2018-07-14T23:34:35.340Z,23.80
2018-07-14T23:37:03.553Z,23.80
2018-07-14T23:39:31.738Z,23.80
2018-07-14T23:41:59.983Z,23.80
2018-07-14T23:44:28.175Z,23.70
2018-07-14T23:46:56.421Z,23.70
2018-07-14T23:49:24.648Z,23.70
2018-07-14T23:51:52.938Z,23.70
2018-07-14T23:54:21.138Z,23.70
2018-07-14T23:56:49.328Z,23.70
2018-07-14T23:59:17.548Z,23.70
